createdAt,value
2022-11-14T00:00:18.436Z,100552.81
2022-11-14T00:03:22.659Z,100549.41
2022-11-14T00:06:26.941Z,100551.13
2022-11-14T00:09:31.182Z,100544.25
2022-11-14T00:12:35.530Z,100546.84
2022-11-14T00:15:39.539Z,100551.19
2022-11-14T00:18:43.771Z,100551.22
2022-11-14T00:21:48.166Z,100555.59
2022-11-14T00:24:52.479Z,100561.69
2022-11-14T00:27:58.929Z,100556.53
2022-11-14T00:31:03.260Z,100552.16
2022-11-14T00:34:07.865Z,100574.78
2022-11-14T00:37:12.341Z,100543.53
2022-11-14T00:40:17.001Z,100560.97
2022-11-14T00:43:21.656Z,100552.28
2022-11-14T00:46:25.941Z,100554.91
2022-11-14T00:49:30.280Z,100553.16
2022-11-14T00:52:34.743Z,100549.75
2022-11-14T00:55:39.806Z,100544.53
2022-11-14T00:58:44.138Z,100535.88
2022-11-14T01:01:48.311Z,100542.84
2022-11-14T01:04:53.160Z,100544.59
2022-11-14T01:07:57.542Z,100528.09
2022-11-14T01:11:01.877Z,100518.53
2022-11-14T01:14:07.524Z,100515.94
2022-11-14T01:17:11.784Z,100508.13
2022-11-14T01:20:17.353Z,100523.78
2022-11-14T01:23:21.409Z,100529.00
2022-11-14T01:26:25.576Z,100522.88
2022-11-14T01:29:30.208Z,100523.78
2022-11-14T01:32:34.749Z,100521.16
2022-11-14T01:35:39.358Z,100515.94
2022-11-14T01:38:43.806Z,100505.53
2022-11-14T01:41:47.864Z,100513.34
2022-11-14T01:44:53.403Z,100508.13
2022-11-14T01:47:57.820Z,100499.44
2022-11-14T01:51:15.479Z,100493.38
2022-11-14T01:54:36.385Z,100489.88
2022-11-14T01:57:46.160Z,100476.81
2022-11-14T02:00:50.565Z,100489.88
2022-11-14T02:03:56.195Z,100487.28
2022-11-14T02:07:04.059Z,100473.38
2022-11-14T02:10:18.699Z,100466.44
2022-11-14T02:13:22.850Z,100463.84
2022-11-14T02:16:28.053Z,100449.91
2022-11-14T02:19:51.905Z,100453.44
2022-11-14T02:22:56.537Z,100448.19
2022-11-14T02:26:01.368Z,100450.78
2022-11-14T02:29:07.454Z,100447.31
2022-11-14T02:32:11.656Z,100457.75
2022-11-14T02:35:15.844Z,100462.13
2022-11-14T02:38:20.232Z,100440.38
2022-11-14T02:41:24.558Z,100436.88
2022-11-14T02:44:28.701Z,100444.69
2022-11-14T02:47:32.615Z,100447.31
2022-11-14T02:50:36.755Z,100446.47
2022-11-14T02:53:41.078Z,100446.47
2022-11-14T02:56:45.450Z,100443.00
2022-11-14T02:59:49.722Z,100430.84
2022-11-14T03:02:54.403Z,100430.84
2022-11-14T03:06:03.124Z,100420.44
2022-11-14T03:09:07.439Z,100410.84
2022-11-14T03:12:11.934Z,100409.13
2022-11-14T03:15:16.597Z,100402.19
2022-11-14T03:18:20.799Z,100396.09
2022-11-14T03:21:25.259Z,100388.28
2022-11-14T03:24:29.534Z,100399.56
2022-11-14T03:27:33.956Z,100400.41
2022-11-14T03:30:38.392Z,100397.81
2022-11-14T03:33:42.977Z,100404.75
2022-11-14T03:36:47.163Z,100403.91
2022-11-14T03:39:51.346Z,100396.06
2022-11-14T03:42:57.582Z,100388.25
2022-11-14T03:46:02.966Z,100389.13
2022-11-14T03:49:07.636Z,100390.88
2022-11-14T03:52:12.647Z,100385.63
2022-11-14T03:55:16.784Z,100383.03
2022-11-14T03:58:20.986Z,100391.75
2022-11-14T04:01:24.941Z,100386.53
2022-11-14T04:04:29.173Z,100375.19
2022-11-14T04:07:33.462Z,100378.69
2022-11-14T04:10:37.665Z,100376.91
2022-11-14T04:13:41.829Z,100366.47
2022-11-14T04:16:46.024Z,100364.75
2022-11-14T04:19:50.558Z,100369.94
2022-11-14T04:22:54.800Z,100375.19
2022-11-14T04:25:59.093Z,100373.44
2022-11-14T04:29:03.107Z,100371.69
2022-11-14T04:32:07.458Z,100363.84
2022-11-14T04:35:11.872Z,100367.38
2022-11-14T04:38:16.242Z,100373.47
2022-11-14T04:41:21.545Z,100377.81
2022-11-14T04:44:25.489Z,100384.75
2022-11-14T04:47:29.739Z,100379.53
2022-11-14T04:50:33.875Z,100375.19
2022-11-14T04:53:38.144Z,100376.09
2022-11-14T04:56:42.386Z,100369.16
2022-11-14T04:59:46.635Z,100362.22
2022-11-14T05:02:51.296Z,100365.69
2022-11-14T05:06:00.780Z,100360.47
2022-11-14T05:09:05.084Z,100356.16
2022-11-14T05:12:09.441Z,100345.75
2022-11-14T05:15:13.713Z,100350.97
2022-11-14T05:18:18.052Z,100353.56
2022-11-14T05:21:22.436Z,100356.19
2022-11-14T05:24:28.661Z,100354.50
2022-11-14T05:27:32.637Z,100362.31
2022-11-14T05:30:36.909Z,100361.44
2022-11-14T05:33:41.254Z,100355.38
2022-11-14T05:36:45.887Z,100351.88
2022-11-14T05:39:50.286Z,100341.50
2022-11-14T05:42:57.898Z,100339.75
2022-11-14T05:46:09.475Z,100329.34
2022-11-14T05:49:17.881Z,100336.31
2022-11-14T05:52:24.730Z,100344.13
2022-11-14T05:55:29.192Z,100327.66
2022-11-14T05:58:35.368Z,100330.25
2022-11-14T06:01:39.933Z,100322.44
2022-11-14T06:04:44.145Z,100313.75
2022-11-14T06:07:48.505Z,100303.31
2022-11-14T06:10:52.746Z,100304.22
2022-11-14T06:13:56.995Z,100298.13
2022-11-14T06:17:01.197Z,100281.72
2022-11-14T06:20:06.406Z,100287.78
2022-11-14T06:23:10.730Z,100274.75
2022-11-14T06:26:22.696Z,100272.16
2022-11-14T06:29:30.197Z,100265.25
2022-11-14T06:32:38.301Z,100265.22
2022-11-14T06:35:42.552Z,100269.53
2022-11-14T06:38:46.750Z,100277.41
2022-11-14T06:41:51.029Z,100279.16
2022-11-14T06:44:55.462Z,100287.84
2022-11-14T06:48:00.239Z,100292.19
2022-11-14T06:51:06.544Z,100294.81
2022-11-14T06:54:14.272Z,100293.09
2022-11-14T06:57:19.244Z,100302.63
2022-11-14T07:00:23.356Z,100312.19
2022-11-14T07:03:27.557Z,100326.97
2022-11-14T07:06:31.750Z,100326.97
2022-11-14T07:09:35.823Z,100325.25
2022-11-14T07:12:40.236Z,100330.47
2022-11-14T07:15:54.056Z,100341.78
2022-11-14T07:18:59.573Z,100352.19
2022-11-14T07:22:04.340Z,100361.75
2022-11-14T07:25:09.434Z,100356.53
2022-11-14T07:28:13.612Z,100355.69
2022-11-14T07:31:20.082Z,100356.53
2022-11-14T07:34:24.501Z,100362.63
2022-11-14T07:37:28.788Z,100365.25
2022-11-14T07:40:33.219Z,100366.94
2022-11-14T07:43:37.310Z,100376.50
2022-11-14T07:46:41.554Z,100373.06
2022-11-14T07:49:45.744Z,100371.31
2022-11-14T07:52:54.433Z,100365.22
2022-11-14T07:56:03.787Z,100366.09
2022-11-14T07:59:07.807Z,100354.81
2022-11-14T08:02:14.431Z,100346.13
2022-11-14T08:05:18.670Z,100352.19
2022-11-14T08:08:23.289Z,100347.88
2022-11-14T08:11:46.072Z,100356.56
2022-11-14T08:14:50.495Z,100352.22
2022-11-14T08:18:01.912Z,100339.19
2022-11-14T08:21:06.359Z,100345.25
2022-11-14T08:24:11.033Z,100340.03
2022-11-14T08:27:15.620Z,100347.00
2022-11-14T08:30:20.151Z,100341.78
2022-11-14T08:33:24.915Z,100333.94
2022-11-14T08:36:29.129Z,100326.97
2022-11-14T08:39:33.312Z,100327.84
2022-11-14T08:42:37.593Z,100325.22
2022-11-14T08:45:41.997Z,100327.81
2022-11-14T08:48:46.063Z,100314.78
2022-11-14T08:51:52.658Z,100313.91
2022-11-14T08:54:56.868Z,100307.81
2022-11-14T08:58:01.238Z,100307.75
2022-11-14T09:01:07.535Z,100313.78
2022-11-14T09:04:12.029Z,100317.22
2022-11-14T09:07:16.255Z,100305.91
2022-11-14T09:10:20.778Z,100296.28
2022-11-14T09:13:24.888Z,100307.53
2022-11-14T09:16:29.185Z,100305.75
2022-11-14T09:19:33.401Z,100298.78
2022-11-14T09:22:37.568Z,100297.88
2022-11-14T09:25:41.864Z,100297.78
2022-11-14T09:28:46.346Z,100289.97
2022-11-14T09:31:52.339Z,100296.88
2022-11-14T09:34:56.485Z,100287.31
2022-11-14T09:38:03.071Z,100291.63
2022-11-14T09:41:26.910Z,100292.44
2022-11-14T09:44:45.993Z,100288.97
2022-11-14T09:47:56.150Z,100287.19
2022-11-14T09:51:00.709Z,100286.31
2022-11-14T09:54:21.776Z,100286.28
2022-11-14T09:57:27.387Z,100288.00
2022-11-14T10:01:07.964Z,100291.41
2022-11-14T10:04:13.775Z,100291.38
2022-11-14T10:07:27.497Z,100291.38
2022-11-14T10:10:55.560Z,100298.28
2022-11-14T10:14:18.258Z,100289.56
2022-11-14T10:17:44.228Z,100283.41
2022-11-14T10:20:54.279Z,100278.25
2022-11-14T10:24:03.792Z,100276.34
2022-11-14T10:27:17.315Z,100274.50
2022-11-14T10:30:21.897Z,100282.31
2022-11-14T10:33:56.173Z,100283.97
2022-11-14T10:37:18.642Z,100269.25
2022-11-14T10:40:58.674Z,100270.88
2022-11-14T10:44:03.458Z,100260.44
2022-11-14T10:47:12.802Z,100256.94
2022-11-14T10:50:25.181Z,100247.31
2022-11-14T10:53:36.158Z,100237.75
2022-11-14T10:56:55.036Z,100249.78
2022-11-14T10:59:59.259Z,100245.34
2022-11-14T11:03:04.009Z,100235.84
2022-11-14T11:06:25.548Z,100230.56
2022-11-14T11:09:48.053Z,100231.41
2022-11-14T11:12:54.357Z,100220.09
2022-11-14T11:16:01.510Z,100224.41
2022-11-14T11:19:23.851Z,100212.25
2022-11-14T11:22:31.207Z,100201.81
2022-11-14T11:25:37.027Z,100205.38
2022-11-14T11:28:41.398Z,100189.63
2022-11-14T11:31:54.909Z,100192.66
2022-11-14T11:35:02.612Z,100175.09
2022-11-14T11:38:13.072Z,100171.41
2022-11-14T11:44:59.358Z,100168.94
2022-11-14T11:48:20.192Z,100165.53
2022-11-14T11:51:27.122Z,100161.88
2022-11-14T11:54:46.499Z,100155.50
2022-11-14T11:58:01.853Z,100150.13
2022-11-14T12:01:05.912Z,100144.00
2022-11-14T12:04:12.518Z,100143.97
2022-11-14T12:07:24.441Z,100146.31
2022-11-14T12:10:33.714Z,100142.31
2022-11-14T12:14:13.398Z,100139.22
2022-11-14T12:17:48.241Z,100121.53
2022-11-14T12:21:12.745Z,100116.38
2022-11-14T12:24:51.109Z,100115.66
2022-11-14T12:28:13.892Z,100107.97
2022-11-14T12:31:18.396Z,100103.72
2022-11-14T12:34:45.595Z,100098.69
2022-11-14T12:37:55.841Z,100093.56
2022-11-14T12:41:02.373Z,100084.84
2022-11-14T12:44:28.070Z,100083.94
2022-11-14T12:47:32.574Z,100073.78
2022-11-14T12:50:43.583Z,100073.81
2022-11-14T12:53:48.180Z,100070.47
2022-11-14T12:57:00.805Z,100062.03
2022-11-14T13:00:08.423Z,100070.06
2022-11-14T13:03:37.472Z,100059.66
2022-11-14T13:06:41.612Z,100057.19
2022-11-14T13:10:04.585Z,100051.16
2022-11-14T13:13:30.680Z,100042.50
2022-11-14T13:16:53.128Z,100041.53
2022-11-14T13:20:16.113Z,100036.28
2022-11-14T13:23:26.430Z,100024.25
2022-11-14T13:26:30.772Z,100024.41
2022-11-14T13:29:41.074Z,100028.00
2022-11-14T13:32:45.133Z,100021.81
2022-11-14T13:35:53.127Z,100019.16
2022-11-14T13:39:09.878Z,100001.66
2022-11-14T13:42:55.060Z,100019.09
2022-11-14T13:46:24.090Z,100017.25
2022-11-14T13:49:32.784Z,100000.47
2022-11-14T13:52:44.723Z,100002.16
2022-11-14T13:56:08.520Z,99996.91
2022-11-14T13:59:35.655Z,99988.25
2022-11-14T14:03:01.862Z,99977.91
2022-11-14T14:06:09.430Z,99978.78
2022-11-14T14:09:38.855Z,99984.78
2022-11-14T14:12:43.531Z,99981.16
2022-11-14T14:15:56.913Z,99976.56
2022-11-14T14:19:25.674Z,99959.00
2022-11-14T14:22:51.756Z,99949.16
2022-11-14T14:26:25.385Z,99936.84
2022-11-14T14:30:06.060Z,99937.94
2022-11-14T14:33:13.454Z,99932.84
2022-11-14T14:36:25.989Z,99936.34
2022-11-14T14:39:30.479Z,99939.25
2022-11-14T14:42:40.048Z,99926.28
2022-11-14T14:45:52.141Z,99930.91
2022-11-14T14:48:58.109Z,99928.63
2022-11-14T14:52:02.533Z,99928.03
2022-11-14T14:55:18.534Z,99922.31
2022-11-14T14:58:27.489Z,99927.88
2022-11-14T15:01:34.857Z,99920.31
2022-11-14T15:04:41.127Z,99918.84
2022-11-14T15:07:46.535Z,99913.00
2022-11-14T15:10:51.669Z,99907.19
2022-11-14T15:13:59.296Z,99900.50
2022-11-14T15:17:04.693Z,99894.56
2022-11-14T15:20:22.987Z,99884.31
2022-11-14T15:23:27.525Z,99888.81
2022-11-14T15:26:31.893Z,99877.63
2022-11-14T15:29:45.832Z,99870.81
2022-11-14T15:32:51.952Z,99864.91
2022-11-14T15:36:06.863Z,99865.00
2022-11-14T15:39:38.255Z,99865.16
2022-11-14T15:42:42.727Z,99853.16
2022-11-14T15:45:47.484Z,99847.13
2022-11-14T15:48:52.191Z,99849.84
2022-11-14T15:52:00.640Z,99844.72
2022-11-14T15:55:12.844Z,99849.97
2022-11-14T15:58:32.992Z,99850.97
2022-11-14T16:01:37.395Z,99838.97
2022-11-14T16:04:47.269Z,99834.75
2022-11-14T16:07:52.511Z,99836.59
2022-11-14T16:10:57.018Z,99826.25
2022-11-14T16:14:01.089Z,99822.88
2022-11-14T16:17:05.825Z,99823.84
2022-11-14T16:20:31.434Z,99814.41
2022-11-14T16:23:36.788Z,99811.81
2022-11-14T16:26:41.278Z,99817.06
2022-11-14T16:29:45.956Z,99820.63
2022-11-14T16:32:51.907Z,99820.69
2022-11-14T16:35:56.093Z,99818.97
2022-11-14T16:39:02.643Z,99806.91
2022-11-14T16:42:08.450Z,99802.63
2022-11-14T16:45:13.218Z,99792.22
2022-11-14T16:48:17.423Z,99786.13
2022-11-14T16:51:47.014Z,99792.22
2022-11-14T16:54:46.317Z,99781.81
2022-11-14T16:57:50.881Z,99775.81
2022-11-14T17:00:55.622Z,99781.88
2022-11-14T17:04:02.826Z,99763.66
2022-11-14T17:07:06.896Z,99766.28
2022-11-14T17:10:11.005Z,99754.09
2022-11-14T17:13:24.058Z,99750.69
2022-11-14T17:16:28.702Z,99737.78
2022-11-14T17:19:32.925Z,99743.88
2022-11-14T17:22:37.586Z,99739.63
2022-11-14T17:25:42.127Z,99731.97
2022-11-14T17:28:46.640Z,99738.00
2022-11-14T17:31:50.940Z,99722.38
2022-11-14T17:34:55.125Z,99711.13
2022-11-14T17:38:00.405Z,99698.13
2022-11-14T17:41:06.101Z,99696.41
2022-11-14T17:44:10.403Z,99699.84
2022-11-14T17:47:14.825Z,99692.06
2022-11-14T17:50:19.208Z,99686.00
2022-11-14T17:53:23.534Z,99681.66
2022-11-14T17:56:28.078Z,99675.66
2022-11-14T17:59:33.610Z,99671.34
2022-11-14T18:02:37.592Z,99645.44
2022-11-14T18:05:41.916Z,99645.38
2022-11-14T18:08:46.906Z,99645.34
2022-11-14T18:11:51.480Z,99631.47
2022-11-14T18:14:55.886Z,99621.88
2022-11-14T18:18:00.598Z,99607.91
2022-11-14T18:21:16.608Z,99607.88
2022-11-14T18:24:21.813Z,99582.72
2022-11-14T18:27:26.238Z,99590.44
2022-11-14T18:30:46.026Z,99573.91
2022-11-14T18:33:51.010Z,99560.00
2022-11-14T18:36:57.074Z,99547.72
2022-11-14T18:40:01.248Z,99535.38
2022-11-14T18:43:05.558Z,99524.81
2022-11-14T18:46:18.777Z,99528.13
2022-11-14T18:49:23.290Z,99527.19
2022-11-14T18:52:27.504Z,99521.97
2022-11-14T18:55:31.646Z,99527.19
2022-11-14T18:58:39.668Z,99525.44
2022-11-14T19:01:44.428Z,99523.75
2022-11-14T19:04:48.764Z,99520.31
2022-11-14T19:07:52.889Z,99510.72
2022-11-14T19:11:02.041Z,99500.19
2022-11-14T19:14:06.673Z,99489.47
2022-11-14T19:17:11.054Z,99482.22
2022-11-14T19:20:15.411Z,99467.13
2022-11-14T19:23:19.965Z,99457.34
2022-11-14T19:26:24.273Z,99449.31
2022-11-14T19:29:28.729Z,99450.81
2022-11-14T19:32:34.448Z,99437.56
2022-11-14T19:35:39.455Z,99431.41
2022-11-14T19:38:44.269Z,99408.81
2022-11-14T19:41:48.790Z,99389.81
2022-11-14T19:44:52.622Z,99389.91
2022-11-14T19:47:57.112Z,99375.25
2022-11-14T19:51:13.055Z,99375.06
2022-11-14T19:54:18.017Z,99367.69
2022-11-14T19:57:22.124Z,99348.44
2022-11-14T20:00:29.368Z,99351.84
2022-11-14T20:03:34.338Z,99329.06
2022-11-14T20:06:39.609Z,99320.34
2022-11-14T20:09:44.004Z,99318.41
2022-11-14T20:12:48.178Z,99299.28
2022-11-14T20:15:52.611Z,99304.47
2022-11-14T20:19:00.092Z,99289.53
2022-11-14T20:22:06.609Z,99286.81
2022-11-14T20:25:15.712Z,99280.59
2022-11-14T20:28:20.217Z,99284.03
2022-11-14T20:31:28.837Z,99263.16
2022-11-14T20:34:33.188Z,99264.84
2022-11-14T20:37:37.365Z,99270.91
2022-11-14T20:40:41.769Z,99262.16
2022-11-14T20:43:45.966Z,99262.06
2022-11-14T20:46:50.227Z,99240.31
2022-11-14T20:49:54.495Z,99235.91
2022-11-14T20:52:58.704Z,99255.81
2022-11-14T20:56:04.194Z,99239.25
2022-11-14T20:59:08.747Z,99231.41
2022-11-14T21:02:13.210Z,99224.41
2022-11-14T21:05:17.491Z,99218.31
2022-11-14T21:08:22.275Z,99210.53
2022-11-14T21:11:26.789Z,99209.72
2022-11-14T21:14:30.986Z,99201.94
2022-11-14T21:17:35.137Z,99212.53
2022-11-14T21:20:39.550Z,99210.88
2022-11-14T21:23:47.726Z,99213.63
2022-11-14T21:26:52.134Z,99206.75
2022-11-14T21:29:56.776Z,99193.81
2022-11-14T21:33:00.881Z,99187.84
2022-11-14T21:36:22.866Z,99192.22
2022-11-14T21:39:30.773Z,99193.03
2022-11-14T21:42:35.033Z,99186.19
2022-11-14T21:45:39.154Z,99172.31
2022-11-14T21:48:47.612Z,99174.09
2022-11-14T21:51:51.808Z,99184.63
2022-11-14T21:54:56.319Z,99169.81
2022-11-14T21:58:00.292Z,99168.09
2022-11-14T22:01:07.208Z,99158.59
2022-11-14T22:04:14.596Z,99150.81
2022-11-14T22:07:19.008Z,99132.63
2022-11-14T22:10:23.254Z,99119.63
2022-11-14T22:13:29.976Z,99101.25
2022-11-14T22:16:34.564Z,99107.25
2022-11-14T22:19:38.969Z,99089.16
2022-11-14T22:22:43.099Z,99064.75
2022-11-14T22:25:58.034Z,99036.97
2022-11-14T22:29:02.395Z,99056.06
2022-11-14T22:32:06.747Z,99037.00
2022-11-14T22:35:10.897Z,99033.53
2022-11-14T22:38:15.022Z,99030.00
2022-11-14T22:41:31.950Z,99023.75
2022-11-14T22:44:37.532Z,99001.19
2022-11-14T22:47:41.777Z,98986.47
2022-11-14T22:50:46.280Z,98991.56
2022-11-14T22:53:53.082Z,98998.50
2022-11-14T22:56:57.752Z,98997.59
2022-11-14T23:00:02.178Z,98995.81
2022-11-14T23:03:06.440Z,98975.78
2022-11-14T23:06:13.141Z,98983.47
2022-11-14T23:09:17.323Z,98992.06
2022-11-14T23:12:21.513Z,98986.81
2022-11-14T23:15:27.050Z,98984.25
2022-11-14T23:18:31.117Z,98985.03
2022-11-14T23:21:36.688Z,98972.00
2022-11-14T23:24:41.067Z,98971.16
2022-11-14T23:27:45.270Z,98968.50
2022-11-14T23:30:49.660Z,98954.56
2022-11-14T23:33:55.816Z,98964.06
2022-11-14T23:37:00.438Z,98953.56
2022-11-14T23:40:05.270Z,98959.53
2022-11-14T23:43:09.504Z,98942.13
2022-11-14T23:46:14.332Z,98930.84
2022-11-14T23:49:19.061Z,98928.25
2022-11-14T23:52:23.516Z,98927.41
2022-11-14T23:55:28.042Z,98923.03
2022-11-14T23:58:32.357Z,98924.78
